Time;durP1;ratioP1;P1;durP2;ratioP2;P2;SDS_P1;SDS_P2;PMS_P1;PMS_P2;Temp;Humidity;BMP_temperature;BMP_pressure;BME280_temperature;BME280_humidity;BME280_pressure;Samples;Min_cycle;Max_cycle;Signal;HPM_P1;HPM_P2
2021/08/24 00:02:46;;;;;;;;;;;13.00;99.90;;;;;;8464404;28;20314;-62
2021/08/24 00:06:46;;;;;;;;;;;12.90;99.90;;;;;;8463482;28;19937;-63
2021/08/24 00:10:48;;;;;;;;;;;12.90;99.90;;;;;;8463530;28;19912;-63
2021/08/24 00:14:48;;;;;;;;;;;12.90;99.90;;;;;;8463126;28;19947;-63
2021/08/24 00:18:49;;;;;;;;;;;12.80;99.90;;;;;;8463142;28;20297;-63
2021/08/24 00:22:49;;;;;;;;;;;12.90;99.90;;;;;;8463360;28;20282;-62
2021/08/24 00:26:50;;;;;;;;;;;12.80;99.90;;;;;;8463414;28;19926;-63
2021/08/24 00:30:50;;;;;;;;;;;12.70;99.90;;;;;;8445020;28;20355;-63
2021/08/24 00:34:51;;;;;;;;;;;12.60;99.90;;;;;;8463148;28;19912;-63
2021/08/24 00:38:51;;;;;;;;;;;12.50;99.90;;;;;;8463187;28;19978;-62
2021/08/24 00:42:51;;;;;;;;;;;12.60;99.90;;;;;;8444322;28;19930;-63
2021/08/24 00:46:52;;;;;;;;;;;12.60;99.90;;;;;;8462413;28;19908;-62
2021/08/24 00:50:53;;;;;;;;;;;12.90;99.90;;;;;;8461743;28;20165;-62
2021/08/24 00:54:55;;;;;;;;;;;12.60;99.90;;;;;;8462250;28;19912;-63
2021/08/24 00:58:56;;;;;;;;;;;12.70;99.90;;;;;;8461493;28;19908;-63
2021/08/24 01:02:59;;;;;;;;;;;12.70;99.90;;;;;;8462129;28;19908;-63
2021/08/24 01:07:02;;;;;;;;;;;12.90;99.90;;;;;;8443708;28;19942;-63
2021/08/24 01:11:10;;;;;;;;;;;12.80;99.90;;;;;;8461880;28;19978;-62
2021/08/24 01:15:19;;;;;;;;;;;12.90;99.90;;;;;;8461321;28;20010;-63
2021/08/24 01:19:38;;;;;;;;;;;12.90;99.90;;;;;;8461878;28;20335;-63
2021/08/24 01:23:51;;;;;;;;;;;13.00;99.90;;;;;;8461340;28;19907;-63
2021/08/24 01:27:59;;;;;;;;;;;13.00;99.90;;;;;;8441970;28;19914;-63
2021/08/24 01:32:03;;;;;;;;;;;13.00;99.90;;;;;;8461235;28;19986;-62
2021/08/24 01:36:12;;;;;;;;;;;13.10;99.90;;;;;;8461078;28;20301;-63
2021/08/24 01:40:35;;;;;;;;;;;13.20;99.90;;;;;;8460865;28;20002;-63
2021/08/24 01:44:55;;;;;;;;;;;13.20;99.90;;;;;;8461443;28;19914;-63
2021/08/24 01:48:58;;;;;;;;;;;13.20;99.90;;;;;;8460228;28;20010;-63
2021/08/24 01:53:05;;;;;;;;;;;13.30;99.90;;;;;;8442277;28;19908;-63
2021/08/24 01:57:10;;;;;;;;;;;13.30;99.90;;;;;;8459874;28;19908;-63
2021/08/24 02:01:13;;;;;;;;;;;13.40;99.90;;;;;;8460016;28;20366;-63
2021/08/24 02:05:20;;;;;;;;;;;13.30;99.90;;;;;;8459901;28;19994;-63
2021/08/24 02:09:24;;;;;;;;;;;13.30;99.90;;;;;;8459393;28;19922;-63
2021/08/24 02:13:27;;;;;;;;;;;13.30;99.90;;;;;;8459602;28;19919;-63
2021/08/24 02:17:29;;;;;;;;;;;13.30;99.90;;;;;;8459620;28;20031;-63
2021/08/24 02:21:32;;;;;;;;;;;13.10;99.90;;;;;;8459506;28;19919;-63
2021/08/24 02:25:35;;;;;;;;;;;12.90;99.90;;;;;;8459554;28;19915;-63
2021/08/24 02:29:36;;;;;;;;;;;12.60;99.90;;;;;;8457699;28;20297;-63
2021/08/24 02:33:43;;;;;;;;;;;12.30;99.90;;;;;;8459271;28;19912;-62
2021/08/24 02:37:53;;;;;;;;;;;12.10;99.90;;;;;;8458787;28;19919;-62
2021/08/24 02:41:56;;;;;;;;;;;12.00;99.90;;;;;;8458964;28;20337;-63
2021/08/24 02:46:04;;;;;;;;;;;11.90;99.90;;;;;;8458883;28;20270;-63
2021/08/24 02:50:06;;;;;;;;;;;11.80;99.90;;;;;;8458720;28;19933;-63
2021/08/24 02:54:11;;;;;;;;;;;11.80;99.90;;;;;;8458767;28;19916;-62
2021/08/24 02:58:11;;;;;;;;;;;11.60;99.90;;;;;;8457811;28;19912;-62
2021/08/24 03:02:12;;;;;;;;;;;11.60;99.90;;;;;;8458769;28;20385;-63
2021/08/24 03:06:13;;;;;;;;;;;11.70;99.90;;;;;;8458863;28;19908;-63
2021/08/24 03:10:15;;;;;;;;;;;11.60;99.90;;;;;;8458340;28;19915;-62
2021/08/24 03:14:21;;;;;;;;;;;11.50;99.90;;;;;;8458418;28;19911;-63
2021/08/24 03:18:25;;;;;;;;;;;11.40;99.90;;;;;;8458516;28;19908;-62
2021/08/24 03:22:25;;;;;;;;;;;11.20;99.90;;;;;;8458565;28;19957;-63
2021/08/24 03:26:28;;;;;;;;;;;11.10;99.90;;;;;;8458451;28;20316;-63
2021/08/24 03:30:35;;;;;;;;;;;10.90;99.90;;;;;;8440047;28;19908;-63
2021/08/24 03:34:35;;;;;;;;;;;10.90;99.90;;;;;;8458112;28;20218;-63
2021/08/24 03:38:37;;;;;;;;;;;11.00;99.90;;;;;;8458025;28;19907;-63
2021/08/24 03:42:38;;;;;;;;;;;11.10;99.90;;;;;;8458597;28;19908;-63
2021/08/24 03:46:39;;;;;;;;;;;11.10;99.90;;;;;;8457997;28;19912;-63
2021/08/24 03:50:39;;;;;;;;;;;11.20;99.90;;;;;;8463003;28;20377;-62
2021/08/24 03:54:39;;;;;;;;;;;11.30;99.90;;;;;;8464197;28;19922;-63
2021/08/24 03:58:40;;;;;;;;;;;11.40;99.90;;;;;;8463351;28;19996;-63
2021/08/24 04:02:41;;;;;;;;;;;11.60;99.90;;;;;;8464691;28;19957;-62
2021/08/24 04:06:42;;;;;;;;;;;11.80;99.90;;;;;;8463553;28;19911;-62
2021/08/24 04:10:42;;;;;;;;;;;11.80;99.90;;;;;;8463445;28;19916;-63
2021/08/24 04:14:42;;;;;;;;;;;11.90;99.90;;;;;;8463681;28;19919;-63
2021/08/24 04:18:43;;;;;;;;;;;11.80;99.90;;;;;;8463216;28;19912;-63
2021/08/24 04:22:46;;;;;;;;;;;11.70;99.90;;;;;;8463248;28;20374;-62
2021/08/24 04:26:46;;;;;;;;;;;11.80;99.90;;;;;;8463044;28;19912;-63
2021/08/24 04:30:47;;;;;;;;;;;11.80;99.90;;;;;;8462977;28;20316;-63
2021/08/24 04:34:48;;;;;;;;;;;11.90;99.90;;;;;;8463321;28;19912;-63
2021/08/24 04:38:48;;;;;;;;;;;11.90;99.90;;;;;;8463086;28;19908;-63
2021/08/24 04:42:49;;;;;;;;;;;11.90;99.90;;;;;;8462915;28;20065;-62
2021/08/24 04:46:49;;;;;;;;;;;12.00;99.90;;;;;;8462707;28;20297;-63
2021/08/24 04:50:50;;;;;;;;;;;12.00;99.90;;;;;;8462471;28;19908;-63
2021/08/24 04:54:50;;;;;;;;;;;12.10;99.90;;;;;;8462697;28;20289;-62
2021/08/24 04:58:51;;;;;;;;;;;12.20;99.90;;;;;;8461225;28;20292;-63
2021/08/24 05:02:51;;;;;;;;;;;12.20;99.90;;;;;;8461389;28;19908;-63
2021/08/24 05:06:52;;;;;;;;;;;12.30;99.90;;;;;;8461880;28;19952;-63
2021/08/24 05:10:52;;;;;;;;;;;12.40;99.90;;;;;;8480079;22;19924;-66
2021/08/24 05:14:53;;;;;;;;;;;12.50;99.90;;;;;;8461684;28;19911;-66
2021/08/24 05:18:54;;;;;;;;;;;12.50;99.90;;;;;;8447219;28;20559;-66
2021/08/24 05:22:56;;;;;;;;;;;12.50;99.90;;;;;;8445077;28;19950;-68
2021/08/24 05:26:56;;;;;;;;;;;12.60;99.90;;;;;;8441096;28;19981;-66
2021/08/24 05:30:57;;;;;;;;;;;12.70;99.90;;;;;;8438336;28;19919;-67
2021/08/24 05:34:57;;;;;;;;;;;12.80;99.90;;;;;;8414062;28;19916;-68
2021/08/24 05:38:58;;;;;;;;;;;12.90;99.90;;;;;;8436179;28;19934;-66
2021/08/24 05:42:58;;;;;;;;;;;13.00;99.90;;;;;;8440272;28;19912;-66
2021/08/24 05:46:59;;;;;;;;;;;13.10;99.90;;;;;;8439363;28;19912;-67
2021/08/24 05:50:59;;;;;;;;;;;13.10;99.90;;;;;;8419692;28;19948;-66
2021/08/24 05:54:59;;;;;;;;;;;13.10;99.90;;;;;;8436756;28;19923;-68
2021/08/24 05:59:00;;;;;;;;;;;13.20;99.90;;;;;;8407621;28;19909;-67
2021/08/24 06:03:00;;;;;;;;;;;13.30;99.90;;;;;;8426384;28;19908;-66
2021/08/24 06:07:01;;;;;;;;;;;13.50;99.90;;;;;;8426078;28;19923;-66
2021/08/24 06:11:02;;;;;;;;;;;13.40;99.90;;;;;;8426063;28;19927;-69
2021/08/24 06:15:03;;;;;;;;;;;13.30;99.90;;;;;;8425674;28;19922;-67
2021/08/24 06:19:04;;;;;;;;;;;13.10;99.90;;;;;;8425046;28;19908;-67
2021/08/24 06:23:04;;;;;;;;;;;13.10;99.90;;;;;;8426226;28;19999;-67
2021/08/24 06:27:05;;;;;;;;;;;13.10;99.90;;;;;;8425206;28;19915;-66
2021/08/24 06:31:06;;;;;;;;;;;13.20;99.90;;;;;;8428199;28;19935;-67
2021/08/24 06:35:07;;;;;;;;;;;13.90;99.90;;;;;;8425833;28;20297;-68
2021/08/24 06:39:08;;;;;;;;;;;14.50;99.90;;;;;;8425307;28;19948;-66
2021/08/24 06:43:08;;;;;;;;;;;14.80;99.90;;;;;;8425546;28;19957;-67
2021/08/24 06:47:09;;;;;;;;;;;15.00;99.90;;;;;;8425328;28;19915;-67
2021/08/24 06:51:10;;;;;;;;;;;15.10;99.90;;;;;;8424758;28;20397;-69
2021/08/24 06:55:10;;;;;;;;;;;15.20;99.90;;;;;;8407371;28;19920;-67
2021/08/24 06:59:13;;;;;;;;;;;15.00;99.90;;;;;;8421444;28;20438;-66
2021/08/24 07:03:14;;;;;;;;;;;15.00;99.90;;;;;;8422659;28;19912;-69
2021/08/24 07:07:15;;;;;;;;;;;15.10;99.90;;;;;;8426290;28;19912;-66
2021/08/24 07:11:15;;;;;;;;;;;15.10;99.90;;;;;;8446691;28;19918;-68
2021/08/24 07:15:17;;;;;;;;;;;15.20;99.90;;;;;;8458631;28;19912;-67
2021/08/24 07:19:18;;;;;;;;;;;15.30;99.90;;;;;;8442608;28;20341;-68
2021/08/24 07:23:19;;;;;;;;;;;15.10;99.90;;;;;;8427497;28;19977;-68
2021/08/24 07:27:19;;;;;;;;;;;15.00;99.90;;;;;;8458549;28;19915;-66
2021/08/24 07:31:20;;;;;;;;;;;15.20;99.90;;;;;;8465548;28;20378;-66
2021/08/24 07:35:20;;;;;;;;;;;15.30;99.90;;;;;;8459186;28;19916;-66
2021/08/24 07:39:21;;;;;;;;;;;15.20;99.90;;;;;;8464550;28;19926;-65
2021/08/24 07:43:21;;;;;;;;;;;15.20;99.90;;;;;;8447024;28;20396;-65
2021/08/24 07:47:22;;;;;;;;;;;15.00;99.90;;;;;;8446959;28;20492;-65
2021/08/24 07:51:22;;;;;;;;;;;14.90;99.90;;;;;;8446700;28;20413;-65
2021/08/24 07:55:23;;;;;;;;;;;14.80;99.90;;;;;;8445876;28;19923;-65
2021/08/24 07:59:23;;;;;;;;;;;14.90;99.90;;;;;;8453068;28;20259;-65
2021/08/24 08:03:24;;;;;;;;;;;14.90;99.90;;;;;;8436092;28;19912;-65
2021/08/24 08:07:25;;;;;;;;;;;15.00;99.90;;;;;;8429931;28;19916;-65
2021/08/24 08:11:27;;;;;;;;;;;15.10;99.90;;;;;;8413103;28;20453;-66
2021/08/24 08:15:31;;;;;;;;;;;15.20;99.90;;;;;;8430906;28;19918;-67
2021/08/24 08:19:32;;;;;;;;;;;15.40;99.90;;;;;;8430389;28;19912;-65
2021/08/24 08:23:32;;;;;;;;;;;15.70;99.90;;;;;;8430716;28;19966;-65
2021/08/24 08:27:33;;;;;;;;;;;15.80;99.90;;;;;;8429384;28;20034;-64
2021/08/24 08:31:33;;;;;;;;;;;16.00;99.90;;;;;;8430367;28;19930;-64
2021/08/24 08:35:34;;;;;;;;;;;16.10;99.90;;;;;;8410950;28;20297;-65
2021/08/24 08:39:34;;;;;;;;;;;16.10;99.90;;;;;;8417784;28;20277;-66
2021/08/24 08:43:38;;;;;;;;;;;16.00;99.90;;;;;;8412366;28;19931;-65
2021/08/24 08:47:42;;;;;;;;;;;16.00;99.90;;;;;;8430103;28;19919;-65
2021/08/24 08:51:45;;;;;;;;;;;16.00;99.90;;;;;;8448043;28;19912;-65
2021/08/24 08:56:03;;;;;;;;;;;16.00;99.90;;;;;;8429392;28;19912;-65
2021/08/24 09:00:13;;;;;;;;;;;15.80;99.90;;;;;;8442101;28;20498;-65
2021/08/24 09:04:25;;;;;;;;;;;15.70;99.90;;;;;;8443498;28;19911;-65
2021/08/24 09:08:28;;;;;;;;;;;15.70;99.90;;;;;;8444363;28;19923;-65
2021/08/24 09:12:29;;;;;;;;;;;15.70;99.90;;;;;;8444822;28;20344;-65
2021/08/24 09:16:31;;;;;;;;;;;15.70;99.90;;;;;;8430708;28;20019;-65
2021/08/24 09:20:35;;;;;;;;;;;15.70;99.90;;;;;;8433711;28;20390;-65
2021/08/24 09:24:36;;;;;;;;;;;15.90;99.90;;;;;;8427825;28;20282;-65
2021/08/24 09:28:36;;;;;;;;;;;16.00;99.90;;;;;;8427710;28;19915;-65
2021/08/24 09:32:37;;;;;;;;;;;16.10;99.90;;;;;;8438467;28;19970;-66
2021/08/24 09:36:38;;;;;;;;;;;16.40;99.90;;;;;;8450478;28;20016;-65
2021/08/24 09:40:41;;;;;;;;;;;16.60;99.90;;;;;;8444990;28;19912;-67
2021/08/24 09:44:41;;;;;;;;;;;16.90;99.90;;;;;;8453796;28;19918;-65
2021/08/24 09:48:52;;;;;;;;;;;16.70;99.90;;;;;;8437461;28;19963;-65
2021/08/24 09:52:52;;;;;;;;;;;16.70;99.90;;;;;;8439252;28;20438;-66
2021/08/24 09:56:55;;;;;;;;;;;16.60;99.90;;;;;;8408839;28;19916;-65
2021/08/24 10:00:58;;;;;;;;;;;16.20;99.90;;;;;;8426754;28;20006;-65
2021/08/24 10:04:59;;;;;;;;;;;16.20;99.90;;;;;;8426632;28;19908;-66
2021/08/24 10:09:11;;;;;;;;;;;16.10;99.90;;;;;;8408178;28;19922;-65
2021/08/24 10:13:22;;;;;;;;;;;16.10;99.90;;;;;;8426643;28;19912;-65
2021/08/24 10:17:29;;;;;;;;;;;16.10;99.90;;;;;;8425673;28;20286;-68
2021/08/24 10:21:35;;;;;;;;;;;16.20;99.90;;;;;;8425804;28;19957;-65
2021/08/24 10:25:56;;;;;;;;;;;16.40;99.90;;;;;;8426471;28;20386;-65
2021/08/24 10:29:59;;;;;;;;;;;16.70;99.90;;;;;;8426872;28;19912;-65
2021/08/24 10:34:04;;;;;;;;;;;16.80;99.90;;;;;;8425093;28;19916;-64
2021/08/24 10:38:05;;;;;;;;;;;16.50;99.90;;;;;;8425330;28;19916;-66
2021/08/24 10:42:15;;;;;;;;;;;16.40;99.90;;;;;;8424674;28;20009;-65
2021/08/24 10:46:15;;;;;;;;;;;16.40;99.90;;;;;;8424881;28;19912;-65
2021/08/24 10:50:21;;;;;;;;;;;16.30;99.90;;;;;;8424371;28;19912;-66
2021/08/24 10:54:41;;;;;;;;;;;15.90;99.90;;;;;;8427276;28;19923;-65
2021/08/24 10:58:47;;;;;;;;;;;15.90;99.90;;;;;;8426898;28;20293;-65
2021/08/24 11:03:07;;;;;;;;;;;16.00;99.90;;;;;;8431689;28;19962;-65
2021/08/24 11:07:26;;;;;;;;;;;16.10;99.90;;;;;;8434217;28;19913;-64
2021/08/24 11:11:42;;;;;;;;;;;15.80;99.90;;;;;;8454881;22;19932;-60
2021/08/24 11:15:45;;;;;;;;;;;15.80;99.90;;;;;;8429324;28;20016;-60
2021/08/24 11:19:46;;;;;;;;;;;15.80;99.90;;;;;;8430959;28;19908;-62
2021/08/24 11:23:46;;;;;;;;;;;16.00;99.90;;;;;;8431198;28;20002;-61
2021/08/24 11:28:05;;;;;;;;;;;16.20;99.90;;;;;;8431333;28;19908;-61
2021/08/24 11:32:24;;;;;;;;;;;16.50;99.90;;;;;;8426215;28;20400;-62
2021/08/24 11:36:36;;;;;;;;;;;16.90;99.90;;;;;;8425379;28;19999;-62
2021/08/24 11:40:41;;;;;;;;;;;17.20;99.90;;;;;;8430342;28;21482;-61
2021/08/24 11:44:50;;;;;;;;;;;17.80;99.90;;;;;;8431322;28;20416;-61
2021/08/24 11:48:56;;;;;;;;;;;17.90;99.90;;;;;;8401762;28;19912;-61
2021/08/24 11:52:58;;;;;;;;;;;17.60;99.90;;;;;;8429839;28;20374;-61
2021/08/24 11:57:09;;;;;;;;;;;17.40;99.90;;;;;;8429475;28;19940;-61
2021/08/24 12:01:09;;;;;;;;;;;17.50;99.90;;;;;;8428981;28;19912;-61
2021/08/24 12:05:15;;;;;;;;;;;18.10;99.90;;;;;;8429600;28;19915;-61
2021/08/24 12:09:18;;;;;;;;;;;19.40;99.90;;;;;;8429574;28;19916;-61
2021/08/24 12:13:25;;;;;;;;;;;19.40;99.90;;;;;;8429971;28;20289;-61
2021/08/24 12:17:28;;;;;;;;;;;18.80;99.90;;;;;;8427050;28;20397;-61
2021/08/24 12:21:34;;;;;;;;;;;19.60;99.90;;;;;;8429299;28;19912;-61
2021/08/24 12:25:37;;;;;;;;;;;20.20;99.90;;;;;;8427688;28;20298;-61
2021/08/24 12:29:39;;;;;;;;;;;20.10;99.90;;;;;;8425758;28;19956;-61
2021/08/24 12:33:44;;;;;;;;;;;20.50;99.90;;;;;;8427073;28;20296;-61
2021/08/24 12:37:53;;;;;;;;;;;21.40;99.90;;;;;;8426280;28;19922;-61
2021/08/24 12:42:07;;;;;;;;;;;21.30;99.90;;;;;;8428093;28;19908;-61
2021/08/24 12:46:19;;;;;;;;;;;21.10;99.90;;;;;;8428697;28;20003;-61
2021/08/24 12:50:20;;;;;;;;;;;22.90;99.90;;;;;;8428749;28;20010;-61
2021/08/24 12:54:22;;;;;;;;;;;23.50;99.90;;;;;;8428922;28;19919;-61
2021/08/24 12:58:27;;;;;;;;;;;23.20;99.90;;;;;;8428260;28;20301;-61
2021/08/24 13:02:35;;;;;;;;;;;24.60;99.90;;;;;;8420913;28;20098;-61
2021/08/24 13:06:37;;;;;;;;;;;23.90;99.90;;;;;;8417968;28;19916;-61
2021/08/24 13:10:39;;;;;;;;;;;22.70;99.90;;;;;;8418768;28;19916;-61
2021/08/24 13:14:45;;;;;;;;;;;22.20;99.90;;;;;;8407215;28;19924;-61
2021/08/24 13:18:50;;;;;;;;;;;21.80;99.90;;;;;;8413670;28;19923;-61
2021/08/24 13:22:56;;;;;;;;;;;23.00;99.90;;;;;;8412854;28;20673;-61
2021/08/24 13:27:01;;;;;;;;;;;24.30;99.90;;;;;;8409125;28;19924;-61
2021/08/24 13:31:08;;;;;;;;;;;23.60;99.90;;;;;;8411813;28;20168;-61
2021/08/24 13:35:17;;;;;;;;;;;23.20;99.90;;;;;;8397668;28;19924;-61
2021/08/24 13:39:18;;;;;;;;;;;22.60;99.90;;;;;;8400200;28;19918;-61
2021/08/24 13:43:23;;;;;;;;;;;22.90;99.90;;;;;;8416303;28;19912;-61
2021/08/24 13:47:24;;;;;;;;;;;23.60;99.90;;;;;;8423683;28;19969;-61
2021/08/24 13:51:24;;;;;;;;;;;24.80;99.90;;;;;;8425264;28;19912;-61
2021/08/24 13:55:27;;;;;;;;;;;25.10;99.90;;;;;;8424593;28;19912;-61
2021/08/24 13:59:35;;;;;;;;;;;24.60;99.90;;;;;;8424146;28;19922;-61
2021/08/24 14:03:40;;;;;;;;;;;24.40;99.90;;;;;;8423405;28;19912;-61
2021/08/24 14:07:41;;;;;;;;;;;23.10;99.90;;;;;;8423141;28;19908;-61
2021/08/24 14:11:46;;;;;;;;;;;22.80;99.90;;;;;;8425183;28;20297;-62
2021/08/24 14:15:48;;;;;;;;;;;26.20;99.90;;;;;;8424094;28;19916;-61
2021/08/24 14:19:50;;;;;;;;;;;28.50;99.90;;;;;;8425015;28;19908;-62
2021/08/24 14:23:52;;;;;;;;;;;31.30;95.00;;;;;;8425016;28;19908;-62
2021/08/24 14:27:53;;;;;;;;;;;31.20;92.00;;;;;;8425317;28;19984;-62
2021/08/24 14:31:55;;;;;;;;;;;34.10;78.60;;;;;;8424672;28;19908;-61
2021/08/24 14:35:57;;;;;;;;;;;29.30;83.80;;;;;;8425162;28;19918;-62
2021/08/24 14:40:00;;;;;;;;;;;30.80;82.40;;;;;;8424631;28;19939;-61
2021/08/24 14:44:15;;;;;;;;;;;30.60;78.30;;;;;;8422633;28;20366;-61
2021/08/24 14:48:17;;;;;;;;;;;29.30;88.40;;;;;;8423001;28;20370;-62
2021/08/24 14:52:18;;;;;;;;;;;30.60;85.30;;;;;;8424346;28;19995;-62
2021/08/24 14:56:21;;;;;;;;;;;34.00;74.00;;;;;;8418532;28;20349;-62
2021/08/24 15:00:25;;;;;;;;;;;35.20;64.40;;;;;;8407680;28;19920;-62
2021/08/24 15:04:26;;;;;;;;;;;33.20;66.00;;;;;;8410508;28;20015;-62
2021/08/24 15:08:26;;;;;;;;;;;31.40;69.30;;;;;;8417301;28;19962;-62
2021/08/24 15:12:33;;;;;;;;;;;29.20;75.00;;;;;;8407947;28;19959;-62
2021/08/24 15:16:36;;;;;;;;;;;26.50;85.40;;;;;;8401980;28;19950;-62
2021/08/24 15:20:38;;;;;;;;;;;24.80;92.50;;;;;;8419983;28;19958;-62
2021/08/24 15:24:46;;;;;;;;;;;23.50;95.00;;;;;;8424998;28;19999;-62
2021/08/24 15:29:07;;;;;;;;;;;23.90;95.00;;;;;;8425046;28;19912;-62
2021/08/24 15:33:25;;;;;;;;;;;24.90;94.00;;;;;;8425168;28;19912;-61
2021/08/24 15:37:25;;;;;;;;;;;24.40;93.50;;;;;;8418755;28;19923;-61
2021/08/24 15:41:28;;;;;;;;;;;23.70;97.40;;;;;;8421281;28;20019;-61
2021/08/24 15:45:30;;;;;;;;;;;23.60;97.90;;;;;;8421549;28;19913;-61
2021/08/24 15:49:31;;;;;;;;;;;24.10;97.60;;;;;;8409379;28;19995;-62
2021/08/24 15:53:31;;;;;;;;;;;23.70;97.00;;;;;;8409491;28;20354;-62
2021/08/24 15:57:32;;;;;;;;;;;23.10;99.10;;;;;;8410290;28;19912;-62
2021/08/24 16:01:34;;;;;;;;;;;22.50;99.90;;;;;;8428452;28;19927;-61
2021/08/24 16:05:35;;;;;;;;;;;23.60;99.90;;;;;;8427696;28;19922;-62
2021/08/24 16:09:35;;;;;;;;;;;25.20;98.10;;;;;;8427228;28;20328;-62
2021/08/24 16:13:36;;;;;;;;;;;27.00;93.60;;;;;;8426871;28;19919;-62
2021/08/24 16:17:36;;;;;;;;;;;26.80;93.80;;;;;;8426338;28;19916;-62
2021/08/24 16:21:38;;;;;;;;;;;24.90;97.10;;;;;;8429043;28;19965;-62
2021/08/24 16:25:38;;;;;;;;;;;24.90;98.70;;;;;;8429789;28;19908;-62
2021/08/24 16:29:38;;;;;;;;;;;27.70;94.00;;;;;;8429261;28;19914;-62
2021/08/24 16:33:40;;;;;;;;;;;30.00;90.00;;;;;;8429380;28;20439;-62
2021/08/24 16:37:40;;;;;;;;;;;30.80;84.90;;;;;;8429001;28;19908;-62
2021/08/24 16:41:41;;;;;;;;;;;30.80;80.50;;;;;;8429197;28;19908;-62
2021/08/24 16:45:42;;;;;;;;;;;28.90;86.70;;;;;;8429560;28;19909;-62
2021/08/24 16:49:42;;;;;;;;;;;28.60;89.10;;;;;;8428691;28;19990;-62
2021/08/24 16:53:43;;;;;;;;;;;28.80;86.90;;;;;;8428719;28;19939;-62
2021/08/24 16:57:43;;;;;;;;;;;27.50;90.10;;;;;;8428594;28;20293;-62
2021/08/24 17:01:44;;;;;;;;;;;25.00;93.70;;;;;;8428399;28;19918;-62
2021/08/24 17:05:44;;;;;;;;;;;23.30;97.00;;;;;;8428452;28;19912;-61
2021/08/24 17:09:45;;;;;;;;;;;22.00;99.90;;;;;;8428190;28;19924;-61
2021/08/24 17:13:45;;;;;;;;;;;20.80;99.90;;;;;;8428004;28;20344;-61
2021/08/24 17:17:46;;;;;;;;;;;20.10;99.90;;;;;;8428081;28;19919;-61
2021/08/24 17:21:46;;;;;;;;;;;19.70;99.90;;;;;;8428301;28;19969;-61
2021/08/24 17:25:48;;;;;;;;;;;19.50;99.90;;;;;;8428223;28;19945;-61
2021/08/24 17:29:49;;;;;;;;;;;19.20;99.90;;;;;;8427699;28;20383;-61
2021/08/24 17:33:49;;;;;;;;;;;19.00;99.90;;;;;;8427636;28;19915;-61
2021/08/24 17:37:50;;;;;;;;;;;18.90;99.90;;;;;;8427043;28;19991;-61
2021/08/24 17:41:50;;;;;;;;;;;18.60;99.90;;;;;;8427306;28;19911;-61
2021/08/24 17:45:52;;;;;;;;;;;18.40;99.90;;;;;;8427210;28;19915;-61
2021/08/24 17:50:07;;;;;;;;;;;18.20;99.90;;;;;;8426859;28;19908;-61
2021/08/24 17:54:08;;;;;;;;;;;17.90;99.90;;;;;;8427152;28;19967;-61
2021/08/24 17:58:09;;;;;;;;;;;17.70;99.90;;;;;;8426827;28;19908;-61
2021/08/24 18:02:09;;;;;;;;;;;17.50;99.90;;;;;;8426835;28;19908;-61
2021/08/24 18:06:20;;;;;;;;;;;17.20;99.90;;;;;;8426303;28;20311;-63
2021/08/24 18:10:21;;;;;;;;;;;17.10;99.90;;;;;;8426307;28;20388;-63
2021/08/24 18:14:22;;;;;;;;;;;17.00;99.90;;;;;;8414425;28;19966;-63
2021/08/24 18:18:22;;;;;;;;;;;16.90;99.90;;;;;;8396944;28;20413;-64
2021/08/24 18:22:23;;;;;;;;;;;16.80;99.90;;;;;;8413365;28;19923;-64
2021/08/24 18:26:26;;;;;;;;;;;16.70;99.90;;;;;;8407219;28;19916;-63
2021/08/24 18:30:26;;;;;;;;;;;16.60;99.90;;;;;;8401362;28;20441;-64
2021/08/24 18:34:27;;;;;;;;;;;16.60;99.90;;;;;;8388547;28;19921;-64
2021/08/24 18:38:28;;;;;;;;;;;16.60;99.90;;;;;;8391213;28;19916;-63
2021/08/24 18:42:29;;;;;;;;;;;16.50;99.90;;;;;;8400265;28;19913;-64
2021/08/24 18:46:29;;;;;;;;;;;16.50;99.90;;;;;;8407957;28;19917;-64
2021/08/24 18:50:31;;;;;;;;;;;16.50;99.90;;;;;;8404419;28;19918;-64
2021/08/24 18:54:31;;;;;;;;;;;16.50;99.90;;;;;;8401515;28;19916;-63
2021/08/24 18:58:32;;;;;;;;;;;16.40;99.90;;;;;;8398892;28;19913;-64
2021/08/24 19:02:32;;;;;;;;;;;16.30;99.90;;;;;;8408299;28;19916;-64
2021/08/24 19:06:33;;;;;;;;;;;16.10;99.90;;;;;;8421193;28;20313;-63
2021/08/24 19:10:33;;;;;;;;;;;15.90;99.90;;;;;;8420377;28;20400;-63
2021/08/24 19:14:36;;;;;;;;;;;15.60;99.90;;;;;;8420227;28;20299;-63
2021/08/24 19:18:37;;;;;;;;;;;15.60;99.90;;;;;;8408602;28;20408;-64
2021/08/24 19:22:38;;;;;;;;;;;15.50;99.90;;;;;;8416714;28;19916;-63
2021/08/24 19:26:38;;;;;;;;;;;15.30;99.90;;;;;;8427938;28;19916;-63
2021/08/24 19:30:39;;;;;;;;;;;15.20;99.90;;;;;;8426627;28;19923;-63
2021/08/24 19:34:39;;;;;;;;;;;15.10;99.90;;;;;;8427678;28;19973;-63
2021/08/24 19:38:40;;;;;;;;;;;15.10;99.90;;;;;;8427635;28;20521;-64
2021/08/24 19:42:41;;;;;;;;;;;15.00;99.90;;;;;;8427060;28;19916;-63
2021/08/24 19:46:41;;;;;;;;;;;15.10;99.90;;;;;;8416589;28;19916;-63
2021/08/24 19:50:43;;;;;;;;;;;15.10;99.90;;;;;;8421200;28;19916;-64
2021/08/24 19:54:44;;;;;;;;;;;14.90;99.90;;;;;;8406296;28;19959;-64
2021/08/24 19:58:44;;;;;;;;;;;14.90;99.90;;;;;;8393312;28;19916;-63
2021/08/24 20:02:45;;;;;;;;;;;14.90;99.90;;;;;;8409297;28;20374;-63
2021/08/24 20:06:45;;;;;;;;;;;14.80;99.90;;;;;;8423934;28;19989;-63
2021/08/24 20:10:46;;;;;;;;;;;14.70;99.90;;;;;;8429449;28;19922;-63
2021/08/24 20:14:46;;;;;;;;;;;14.60;99.90;;;;;;8430747;28;19920;-64
2021/08/24 20:18:47;;;;;;;;;;;14.60;99.90;;;;;;8429809;28;20389;-63
2021/08/24 20:22:47;;;;;;;;;;;14.40;99.90;;;;;;8429763;28;19919;-63
2021/08/24 20:26:48;;;;;;;;;;;14.30;99.90;;;;;;8430218;28;20332;-63
2021/08/24 20:30:49;;;;;;;;;;;14.10;99.90;;;;;;8429911;28;19908;-63
2021/08/24 20:34:50;;;;;;;;;;;14.20;99.90;;;;;;8429895;28;19966;-62
2021/08/24 20:38:50;;;;;;;;;;;14.20;99.90;;;;;;8429345;28;20286;-62
2021/08/24 20:42:50;;;;;;;;;;;14.10;99.90;;;;;;8429901;28;19916;-63
2021/08/24 20:46:51;;;;;;;;;;;14.00;99.90;;;;;;8429599;28;19915;-63
2021/08/24 20:50:52;;;;;;;;;;;13.90;99.90;;;;;;8429094;28;19908;-63
2021/08/24 20:54:52;;;;;;;;;;;13.90;99.90;;;;;;8426593;28;19927;-63
2021/08/24 20:58:53;;;;;;;;;;;13.90;99.90;;;;;;8423820;28;19942;-63
2021/08/24 21:02:53;;;;;;;;;;;13.70;99.90;;;;;;8414316;28;20298;-63
2021/08/24 21:06:54;;;;;;;;;;;13.70;99.90;;;;;;8411223;28;20004;-63
2021/08/24 21:10:54;;;;;;;;;;;13.60;99.90;;;;;;8410721;28;19969;-64
2021/08/24 21:14:55;;;;;;;;;;;13.50;99.90;;;;;;8411158;28;19916;-63
2021/08/24 21:18:55;;;;;;;;;;;13.50;99.90;;;;;;8411003;28;20005;-63
2021/08/24 21:22:56;;;;;;;;;;;13.40;99.90;;;;;;8412597;28;19909;-64
2021/08/24 21:26:56;;;;;;;;;;;13.40;99.90;;;;;;8410536;28;19916;-63
2021/08/24 21:30:57;;;;;;;;;;;13.30;99.90;;;;;;8410373;28;19915;-63
2021/08/24 21:34:57;;;;;;;;;;;13.30;99.90;;;;;;8409962;28;19917;-63
2021/08/24 21:38:58;;;;;;;;;;;13.20;99.90;;;;;;8406468;28;19919;-64
2021/08/24 21:42:58;;;;;;;;;;;13.10;99.90;;;;;;8427001;28;19912;-63
2021/08/24 21:46:59;;;;;;;;;;;13.10;99.90;;;;;;8427467;28;19908;-64
2021/08/24 21:51:00;;;;;;;;;;;12.90;99.90;;;;;;8426785;28;19995;-63
2021/08/24 21:55:00;;;;;;;;;;;12.80;99.90;;;;;;8426065;28;19912;-63
2021/08/24 21:59:01;;;;;;;;;;;12.70;99.90;;;;;;8426921;28;19931;-63
2021/08/24 22:03:02;;;;;;;;;;;12.70;99.90;;;;;;8427088;28;19908;-63
2021/08/24 22:07:02;;;;;;;;;;;12.70;99.90;;;;;;8427003;28;20001;-63
2021/08/24 22:11:05;;;;;;;;;;;12.80;99.90;;;;;;8426375;28;20409;-63
2021/08/24 22:15:13;;;;;;;;;;;12.70;99.90;;;;;;8426714;28;19912;-63
2021/08/24 22:19:15;;;;;;;;;;;12.70;99.90;;;;;;8426387;28;20386;-64
2021/08/24 22:23:16;;;;;;;;;;;12.50;99.90;;;;;;8426468;28;19912;-63
2021/08/24 22:27:16;;;;;;;;;;;12.50;99.90;;;;;;8426567;28;19969;-64
2021/08/24 22:31:17;;;;;;;;;;;12.50;99.90;;;;;;8426094;28;19908;-63
2021/08/24 22:35:17;;;;;;;;;;;12.40;99.90;;;;;;8426197;28;19923;-64
2021/08/24 22:39:19;;;;;;;;;;;12.60;99.90;;;;;;8425659;28;19938;-63
2021/08/24 22:43:20;;;;;;;;;;;12.70;99.90;;;;;;8426146;28;20423;-63
2021/08/24 22:47:20;;;;;;;;;;;12.80;99.90;;;;;;8425904;28;19908;-64
2021/08/24 22:51:21;;;;;;;;;;;12.80;99.90;;;;;;8425753;28;19953;-63
2021/08/24 22:55:22;;;;;;;;;;;12.80;99.90;;;;;;8425896;28;19938;-63
2021/08/24 22:59:23;;;;;;;;;;;12.70;99.90;;;;;;8425732;28;20378;-63
2021/08/24 23:03:23;;;;;;;;;;;12.60;99.90;;;;;;8426013;28;19939;-64
2021/08/24 23:07:24;;;;;;;;;;;12.90;99.90;;;;;;8424594;28;19908;-63
2021/08/24 23:11:24;;;;;;;;;;;13.00;99.90;;;;;;8425760;28;19916;-64
2021/08/24 23:15:25;;;;;;;;;;;13.00;99.90;;;;;;8425950;28;19912;-64
2021/08/24 23:19:26;;;;;;;;;;;13.00;99.90;;;;;;8425667;28;20397;-65
2021/08/24 23:23:26;;;;;;;;;;;13.00;99.90;;;;;;8425831;28;19909;-65
2021/08/24 23:27:27;;;;;;;;;;;13.00;99.90;;;;;;8425300;28;20305;-65
2021/08/24 23:31:27;;;;;;;;;;;12.90;99.90;;;;;;8425447;28;20428;-65